Time;durP1;ratioP1;P1;durP2;ratioP2;P2;SDS_P1;SDS_P2;PMS_P1;PMS_P2;Temp;Humidity;BMP_temperature;BMP_pressure;BME280_temperature;BME280_humidity;BME280_pressure;Samples;Min_cycle;Max_cycle;Signal;HPM_P1;HPM_P2
2022/09/05 00:00:07;;;;;;;3.40;1.42;;;20.30;99.90;;;;;;7392998;19;20146;-76
2022/09/05 00:02:40;;;;;;;2.28;1.35;;;20.40;99.90;;;;;;7395592;19;20138;-75
2022/09/05 00:05:21;;;;;;;4.15;1.80;;;20.40;99.90;;;;;;7393207;19;20149;-76
2022/09/05 00:08:16;;;;;;;2.70;1.60;;;20.50;99.90;;;;;;7394237;19;20146;-76
2022/09/05 00:10:59;;;;;;;1.30;1.20;;;20.40;99.90;;;;;;7393616;19;20147;-75
2022/09/05 00:13:29;;;;;;;2.03;1.50;;;20.40;99.90;;;;;;7392670;19;20138;-76
2022/09/05 00:16:16;;;;;;;2.03;1.33;;;20.40;99.90;;;;;;7395674;19;20142;-76
2022/09/05 00:19:02;;;;;;;1.30;1.20;;;20.30;99.90;;;;;;7391127;19;20138;-76
2022/09/05 00:21:36;;;;;;;2.45;1.73;;;20.10;99.90;;;;;;7395733;19;20476;-76
2022/09/05 00:24:13;;;;;;;1.75;1.40;;;20.20;99.90;;;;;;7392728;19;20150;-76
2022/09/05 00:26:58;;;;;;;2.85;1.25;;;20.30;99.90;;;;;;7391926;19;20198;-76
2022/09/05 00:29:54;;;;;;;1.60;1.40;;;20.30;99.90;;;;;;7394190;19;20157;-78
2022/09/05 00:32:57;;;;;;;4.40;1.70;;;20.00;99.90;;;;;;7392036;19;20138;-76
2022/09/05 00:35:23;;;;;;;4.50;1.60;;;19.90;99.90;;;;;;7389246;19;20459;-77
2022/09/05 00:37:50;;;;;;;1.73;1.58;;;19.70;99.90;;;;;;7394822;19;20247;-76
2022/09/05 00:40:22;;;;;;;2.25;1.73;;;19.80;99.90;;;;;;7391927;19;20146;-76
2022/09/05 00:42:52;;;;;;;1.60;1.50;;;19.80;99.90;;;;;;7392610;19;20130;-77
2022/09/05 00:45:46;;;;;;;4.13;1.50;;;19.80;99.90;;;;;;7392202;19;20147;-77
2022/09/05 00:48:15;;;;;;;2.63;1.92;;;19.60;99.90;;;;;;7392129;19;20150;-77
2022/09/05 00:51:09;;;;;;;2.60;1.55;;;19.80;99.90;;;;;;7391705;19;20622;-77
2022/09/05 00:53:43;;;;;;;2.00;1.58;;;19.70;99.90;;;;;;7390904;19;20142;-76
2022/09/05 00:56:21;;;;;;;3.08;2.00;;;19.70;99.90;;;;;;7391136;19;20150;-75
2022/09/05 00:59:08;;;;;;;2.10;1.90;;;19.40;99.90;;;;;;7392097;19;20147;-75
2022/09/05 01:02:12;;;;;;;2.53;1.60;;;19.70;99.90;;;;;;7391298;19;20206;-76
2022/09/05 01:05:02;;;;;;;2.25;1.73;;;19.90;99.90;;;;;;7391356;19;20198;-76
2022/09/05 01:08:06;;;;;;;3.83;2.03;;;19.80;99.90;;;;;;7392406;19;20158;-76
2022/09/05 01:11:00;;;;;;;6.38;1.90;;;19.90;99.90;;;;;;7391395;19;20146;-76
2022/09/05 01:13:49;;;;;;;2.53;1.60;;;20.00;99.90;;;;;;7394806;19;20142;-75
2022/09/05 01:16:28;;;;;;;3.15;1.80;;;19.70;99.90;;;;;;7390997;19;20138;-76
2022/09/05 01:19:38;;;;;;;1.70;1.30;;;19.10;99.90;;;;;;7392349;19;20130;-76
2022/09/05 01:22:23;;;;;;;3.70;1.67;;;18.70;99.90;;;;;;7390752;19;20178;-76
2022/09/05 01:25:11;;;;;;;1.55;1.35;;;18.60;99.90;;;;;;7392313;19;20532;-76
2022/09/05 01:27:57;;;;;;;2.78;1.77;;;18.60;99.90;;;;;;7392293;19;20139;-78
2022/09/05 01:30:32;;;;;;;1.67;1.58;;;18.70;99.90;;;;;;7392103;19;20146;-75
2022/09/05 01:33:18;;;;;;;3.50;1.40;;;18.70;99.90;;;;;;7392914;19;20591;-76
2022/09/05 01:36:13;;;;;;;2.40;1.50;;;18.50;99.90;;;;;;7391609;19;20154;-76
2022/09/05 01:38:59;;;;;;;2.58;1.60;;;18.90;99.90;;;;;;7389885;19;20131;-76
2022/09/05 01:41:44;;;;;;;2.70;1.70;;;19.30;99.90;;;;;;7392187;19;20158;-76
2022/09/05 01:44:29;;;;;;;1.65;1.40;;;19.20;99.90;;;;;;7391855;19;20237;-77
2022/09/05 01:46:54;;;;;;;2.42;1.50;;;18.90;99.90;;;;;;7396352;19;20150;-77
2022/09/05 01:49:48;;;;;;;2.35;1.70;;;18.80;99.90;;;;;;7397978;19;20504;-77
2022/09/05 01:52:35;;;;;;;2.03;1.38;;;18.90;99.90;;;;;;7397837;19;20599;-77
2022/09/05 01:55:19;;;;;;;2.90;1.85;;;19.30;99.90;;;;;;7399083;19;20143;-75
2022/09/05 01:58:08;;;;;;;2.08;1.88;;;19.30;99.90;;;;;;7398636;19;20162;-77
2022/09/05 02:00:52;;;;;;;2.60;1.67;;;19.20;99.90;;;;;;7399230;19;20154;-76
2022/09/05 02:03:38;;;;;;;2.13;1.50;;;19.40;99.90;;;;;;7398277;19;20583;-76
2022/09/05 02:06:27;;;;;;;3.30;1.70;;;19.40;99.90;;;;;;7398115;19;20135;-77
2022/09/05 02:09:19;;;;;;;2.08;1.63;;;19.40;99.90;;;;;;7396834;19;20154;-77
2022/09/05 02:12:00;;;;;;;2.10;1.90;;;19.50;99.90;;;;;;7393533;19;20185;-77
2022/09/05 02:14:57;;;;;;;2.78;1.80;;;19.60;99.90;;;;;;7399532;19;20245;-88
2022/09/05 02:17:41;;;;;;;2.75;1.90;;;19.40;99.90;;;;;;7396678;19;20142;-86
2022/09/05 02:20:29;;;;;;;2.00;1.80;;;19.20;99.90;;;;;;7398503;19;20154;-86
2022/09/05 02:23:16;;;;;;;3.58;1.70;;;19.30;99.90;;;;;;7397534;19;20146;-75
2022/09/05 02:25:47;;;;;;;5.15;1.60;;;19.30;99.90;;;;;;7400695;19;20243;-75
2022/09/05 02:28:43;;;;;;;2.22;1.55;;;19.20;99.90;;;;;;7397802;19;20150;-76
2022/09/05 02:31:39;;;;;;;2.58;1.63;;;19.20;99.90;;;;;;7392380;19;21028;-78
2022/09/05 02:34:32;;;;;;;1.65;1.50;;;19.30;99.90;;;;;;7398912;19;20149;-77
2022/09/05 02:37:12;;;;;;;1.70;1.35;;;18.80;99.90;;;;;;7398018;19;20141;-77
2022/09/05 02:39:51;;;;;;;1.60;1.40;;;18.60;99.90;;;;;;7396111;19;20131;-76
2022/09/05 02:42:23;;;;;;;1.50;1.40;;;18.40;99.90;;;;;;7396371;19;20512;-76
2022/09/05 02:45:11;;;;;;;2.55;1.40;;;18.80;99.90;;;;;;7396850;19;20145;-76
2022/09/05 02:48:03;;;;;;;1.60;1.50;;;18.80;99.90;;;;;;7393121;19;20222;-77
2022/09/05 02:50:44;;;;;;;1.95;1.40;;;18.80;99.90;;;;;;7397778;19;20147;-76
2022/09/05 02:53:12;;;;;;;2.13;1.30;;;18.80;99.90;;;;;;7398563;19;20146;-77
2022/09/05 02:56:05;;;;;;;2.78;1.60;;;18.90;99.90;;;;;;7396182;19;20245;-77
2022/09/05 02:58:54;;;;;;;2.28;1.55;;;19.00;99.90;;;;;;7395054;19;20158;-76
2022/09/05 03:01:45;;;;;;;3.00;1.70;;;19.10;99.90;;;;;;7395247;19;20161;-76
2022/09/05 03:04:42;;;;;;;2.53;1.58;;;19.30;99.90;;;;;;7395122;19;20546;-76
2022/09/05 03:07:34;;;;;;;1.55;1.40;;;19.20;99.90;;;;;;7398364;19;20149;-76
2022/09/05 03:10:17;;;;;;;2.35;1.70;;;19.30;99.90;;;;;;7396387;19;20897;-77
2022/09/05 03:12:52;;;;;;;2.90;1.52;;;19.50;99.90;;;;;;7394563;19;20209;-77
2022/09/05 03:15:58;;;;;;;2.85;1.63;;;19.50;99.90;;;;;;7396991;19;20165;-79
2022/09/05 03:19:01;;;;;;;1.65;1.55;;;19.50;99.90;;;;;;7398122;19;20564;-76
2022/09/05 03:21:36;;;;;;;1.83;1.52;;;19.40;99.90;;;;;;7395420;19;20177;-78
2022/09/05 03:24:43;;;;;;;2.25;1.52;;;18.90;99.90;;;;;;7396652;19;20138;-75
2022/09/05 03:27:30;;;;;;;2.05;1.50;;;18.80;99.90;;;;;;7394922;19;20837;-76
2022/09/05 03:30:07;;;;;;;2.05;1.52;;;18.70;99.90;;;;;;7395724;19;20176;-76
2022/09/05 03:32:52;;;;;;;1.50;1.15;;;18.50;99.90;;;;;;7399350;19;20228;-77
2022/09/05 03:35:36;;;;;;;1.50;1.38;;;18.60;99.90;;;;;;7395238;19;20156;-76
2022/09/05 03:38:36;;;;;;;2.72;1.60;;;18.70;99.90;;;;;;7395806;19;20156;-77
2022/09/05 03:41:38;;;;;;;3.13;1.70;;;18.80;99.90;;;;;;7395567;19;20173;-77
2022/09/05 03:44:25;;;;;;;3.58;1.98;;;18.90;99.90;;;;;;7394299;19;20134;-76
2022/09/05 03:47:02;;;;;;;2.33;1.50;;;19.00;99.90;;;;;;7393223;19;20217;-77
2022/09/05 03:49:50;;;;;;;4.82;1.80;;;18.60;99.90;;;;;;7394967;19;20171;-76
2022/09/05 03:52:54;;;;;;;4.32;1.42;;;18.50;99.90;;;;;;7394713;19;20640;-76
2022/09/05 03:55:23;;;;;;;2.88;2.17;;;18.30;99.90;;;;;;7391457;19;20142;-76
2022/09/05 03:58:07;;;;;;;4.68;1.90;;;18.00;99.90;;;;;;7392420;19;20143;-78
2022/09/05 04:00:35;;;;;;;3.55;1.60;;;18.40;99.90;;;;;;7391154;19;20612;-77
2022/09/05 04:03:17;;;;;;;3.38;2.25;;;18.40;99.90;;;;;;7394835;19;20155;-76
2022/09/05 04:06:06;;;;;;;2.90;1.80;;;18.20;99.90;;;;;;7393756;19;20142;-77
2022/09/05 04:08:43;;;;;;;2.55;1.65;;;18.30;99.90;;;;;;7391051;19;20155;-77
2022/09/05 04:11:12;;;;;;;2.40;1.58;;;18.10;99.90;;;;;;7394608;19;20209;-76
2022/09/05 04:13:53;;;;;;;2.05;1.60;;;18.10;99.90;;;;;;7395783;19;20150;-76
2022/09/05 04:16:45;;;;;;;4.20;1.70;;;18.10;99.90;;;;;;7394776;19;20523;-76
2022/09/05 04:19:31;;;;;;;2.35;1.98;;;18.00;99.90;;;;;;7393618;19;20147;-76
2022/09/05 04:22:25;;;;;;;2.50;1.90;;;18.00;99.90;;;;;;7393673;19;20150;-75
2022/09/05 04:25:08;;;;;;;2.55;2.05;;;17.70;99.90;;;;;;7393611;19;20158;-76
2022/09/05 04:28:02;;;;;;;4.57;2.03;;;17.80;99.90;;;;;;7394273;19;20685;-76
2022/09/05 04:30:57;;;;;;;2.58;1.50;;;17.80;99.90;;;;;;7393781;19;20190;-76
2022/09/05 04:33:42;;;;;;;2.28;1.80;;;18.20;99.90;;;;;;7394488;19;20662;-76
2022/09/05 04:36:24;;;;;;;3.63;2.08;;;18.60;99.90;;;;;;7391598;19;20143;-77
2022/09/05 04:39:18;;;;;;;1.67;1.50;;;18.80;99.90;;;;;;7393077;19;20146;-77
2022/09/05 04:42:06;;;;;;;3.70;1.75;;;18.80;99.90;;;;;;7391484;19;20146;-77
2022/09/05 04:44:50;;;;;;;1.90;1.58;;;18.30;99.90;;;;;;7394638;19;20205;-77
2022/09/05 04:47:22;;;;;;;2.90;1.70;;;18.50;99.90;;;;;;7394539;19;20147;-77
2022/09/05 04:50:08;;;;;;;2.53;1.75;;;18.40;99.90;;;;;;7391162;19;20146;-77
2022/09/05 04:53:24;;;;;;;2.25;1.67;;;18.20;99.90;;;;;;7393848;19;20158;-76
2022/09/05 04:55:56;;;;;;;2.15;1.65;;;18.40;99.90;;;;;;7391096;19;20134;-77
2022/09/05 04:58:40;;;;;;;4.13;1.90;;;18.50;99.90;;;;;;7391671;19;20945;-78
2022/09/05 05:01:21;;;;;;;2.78;2.00;;;18.60;99.90;;;;;;7391838;19;20143;-76
2022/09/05 05:03:47;;;;;;;2.65;2.17;;;18.70;99.90;;;;;;7392011;19;20153;-76
2022/09/05 05:06:31;;;;;;;5.00;2.10;;;18.70;99.90;;;;;;7392316;19;20138;-75
2022/09/05 05:09:30;;;;;;;3.55;2.03;;;18.50;99.90;;;;;;7391817;19;20490;-76
2022/09/05 05:12:07;;;;;;;4.90;2.00;;;18.20;99.90;;;;;;7389157;19;20166;-75
2022/09/05 05:14:46;;;;;;;3.45;2.30;;;18.10;99.90;;;;;;7392343;19;20131;-77
2022/09/05 05:17:23;;;;;;;5.15;2.13;;;18.00;99.90;;;;;;7390043;19;20142;-75
2022/09/05 05:20:15;;;;;;;3.15;2.35;;;18.00;99.90;;;;;;7390495;19;20160;-77
2022/09/05 05:23:08;;;;;;;2.95;2.00;;;18.20;99.90;;;;;;7402109;19;20134;-76
2022/09/05 05:25:46;;;;;;;3.47;2.15;;;18.20;99.90;;;;;;7401217;19;20146;-76
2022/09/05 05:28:19;;;;;;;1.92;1.73;;;18.00;99.90;;;;;;7400118;19;20575;-76
2022/09/05 05:30:45;;;;;;;3.38;1.80;;;18.00;99.90;;;;;;7399841;19;20161;-77
2022/09/05 05:33:33;;;;;;;4.25;2.00;;;18.10;99.90;;;;;;7400054;19;20142;-77
2022/09/05 05:36:02;;;;;;;3.33;2.05;;;18.10;99.90;;;;;;7397708;19;20197;-77
2022/09/05 05:38:41;;;;;;;3.75;2.70;;;18.00;99.90;;;;;;7399098;19;20130;-79
2022/09/05 05:41:18;;;;;;;3.97;2.80;;;18.10;99.90;;;;;;7398992;19;20134;-76
2022/09/05 05:43:46;;;;;;;3.35;2.28;;;18.50;99.90;;;;;;7396841;19;20186;-77
2022/09/05 05:46:24;;;;;;;3.33;2.15;;;18.70;99.90;;;;;;7396503;19;20134;-79
2022/09/05 05:48:52;;;;;;;2.25;1.98;;;18.80;99.90;;;;;;7397140;19;20134;-78
2022/09/05 05:51:37;;;;;;;3.13;1.65;;;18.80;99.90;;;;;;7397021;19;20135;-79
2022/09/05 05:54:21;;;;;;;3.60;1.92;;;18.80;99.90;;;;;;7398729;19;20824;-78
2022/09/05 05:57:21;;;;;;;3.85;2.25;;;18.70;99.90;;;;;;7397829;19;20131;-77
2022/09/05 06:00:06;;;;;;;2.85;2.10;;;18.80;99.90;;;;;;7396768;19;20214;-79
2022/09/05 06:02:40;;;;;;;3.58;2.00;;;18.30;99.90;;;;;;7397618;19;20222;-78
2022/09/05 06:05:26;;;;;;;3.60;2.10;;;18.50;99.90;;;;;;7397869;19;20142;-78
2022/09/05 06:08:07;;;;;;;4.00;2.65;;;18.60;99.90;;;;;;7398051;19;20157;-77
2022/09/05 06:11:01;;;;;;;3.70;2.33;;;18.90;99.90;;;;;;7397592;19;20486;-78
2022/09/05 06:14:05;;;;;;;3.33;2.35;;;18.80;99.90;;;;;;7396493;19;20134;-77
2022/09/05 06:16:34;;;;;;;3.75;2.35;;;19.00;99.90;;;;;;7396033;19;20150;-78
2022/09/05 06:19:07;;;;;;;4.00;2.20;;;18.80;99.90;;;;;;7396816;19;20139;-78
2022/09/05 06:22:11;;;;;;;4.60;2.78;;;19.00;99.90;;;;;;7397846;19;20214;-77
2022/09/05 06:24:56;;;;;;;5.05;2.33;;;19.20;99.90;;;;;;7395582;19;20161;-77
2022/09/05 06:27:34;;;;;;;6.70;2.30;;;18.80;99.90;;;;;;7394727;19;20138;-75
2022/09/05 06:30:07;;;;;;;6.63;2.65;;;18.90;99.90;;;;;;7395725;19;20564;-76
2022/09/05 06:32:51;;;;;;;3.25;2.60;;;19.00;99.90;;;;;;7392266;19;20146;-76
2022/09/05 06:35:48;;;;;;;3.72;2.60;;;19.00;99.90;;;;;;7396465;19;20161;-76
2022/09/05 06:38:28;;;;;;;3.25;2.90;;;18.80;99.90;;;;;;7393689;19;20126;-76
2022/09/05 06:40:57;;;;;;;2.80;2.47;;;18.90;99.90;;;;;;7396678;19;20136;-77
2022/09/05 06:43:52;;;;;;;3.22;2.03;;;19.00;99.90;;;;;;7394005;19;20161;-77
2022/09/05 06:46:30;;;;;;;3.60;2.50;;;19.20;99.90;;;;;;7395952;19;20131;-76
2022/09/05 06:49:17;;;;;;;3.30;2.35;;;19.50;99.90;;;;;;7394110;19;20162;-77
2022/09/05 06:52:10;;;;;;;4.82;2.40;;;19.30;99.90;;;;;;7396252;19;20143;-77
2022/09/05 06:55:13;;;;;;;4.05;2.20;;;19.00;99.90;;;;;;7394318;19;20145;-77
2022/09/05 06:57:51;;;;;;;3.17;2.25;;;18.70;99.90;;;;;;7393159;19;20134;-78
2022/09/05 07:00:43;;;;;;;4.72;2.25;;;18.80;99.90;;;;;;7394450;19;20152;-78
2022/09/05 07:03:43;;;;;;;3.67;2.40;;;18.70;99.90;;;;;;7394266;19;20158;-77
2022/09/05 07:06:31;;;;;;;3.35;2.88;;;18.80;99.90;;;;;;7391423;19;20143;-78
2022/09/05 07:09:18;;;;;;;2.70;2.42;;;18.90;99.90;;;;;;7394521;19;20165;-77
2022/09/05 07:11:55;;;;;;;2.28;2.08;;;19.10;99.90;;;;;;7396215;19;20177;-78
2022/09/05 07:14:30;;;;;;;3.00;2.10;;;19.50;99.90;;;;;;7395322;19;20150;-79
2022/09/05 07:17:27;;;;;;;4.97;2.28;;;19.80;99.90;;;;;;7392543;19;20158;-78
2022/09/05 07:19:59;;;;;;;3.67;2.42;;;20.00;99.90;;;;;;7392454;19;20221;-75
2022/09/05 07:22:44;;;;;;;3.50;2.35;;;20.20;99.90;;;;;;7393574;19;20161;-75
2022/09/05 07:25:14;;;;;;;3.13;2.05;;;20.20;99.90;;;;;;7394304;19;20162;-76
2022/09/05 07:27:59;;;;;;;4.95;2.45;;;20.20;99.90;;;;;;7394220;19;20320;-76
2022/09/05 07:30:25;;;;;;;4.03;2.25;;;20.30;99.90;;;;;;7395102;19;20131;-75
2022/09/05 07:32:55;;;;;;;4.75;2.10;;;20.40;99.90;;;;;;7393515;19;20185;-75
2022/09/05 07:35:29;;;;;;;2.75;2.20;;;20.40;99.90;;;;;;7393461;19;20147;-77
2022/09/05 07:38:13;;;;;;;2.78;1.98;;;20.50;99.90;;;;;;7394602;19;20150;-76
2022/09/05 07:40:48;;;;;;;4.18;2.10;;;20.60;99.90;;;;;;7392908;19;20135;-76
2022/09/05 07:43:45;;;;;;;4.13;2.58;;;20.70;99.90;;;;;;7393734;19;20160;-75
2022/09/05 07:46:23;;;;;;;4.78;1.95;;;20.80;99.90;;;;;;7392705;19;20165;-74
2022/09/05 07:49:04;;;;;;;3.25;2.40;;;21.10;99.90;;;;;;7393954;19;20484;-77
2022/09/05 07:51:34;;;;;;;3.83;1.83;;;21.50;99.90;;;;;;7393108;19;20143;-76
2022/09/05 07:54:29;;;;;;;3.70;2.15;;;22.10;99.90;;;;;;7393301;19;20160;-75
2022/09/05 07:57:08;;;;;;;9.60;2.15;;;22.70;99.90;;;;;;7391854;19;20131;-75
2022/09/05 07:59:42;;;;;;;6.65;2.42;;;23.20;99.90;;;;;;7394203;19;20162;-76
2022/09/05 08:02:10;;;;;;;4.57;2.60;;;23.40;99.90;;;;;;7392808;19;20146;-76
2022/09/05 08:04:39;;;;;;;4.47;2.38;;;23.50;99.90;;;;;;7392947;19;20139;-75
2022/09/05 08:07:29;;;;;;;4.80;2.40;;;23.50;99.90;;;;;;7392978;19;20211;-77
2022/09/05 08:10:00;;;;;;;3.22;2.20;;;23.60;99.90;;;;;;7391857;19;20570;-75
2022/09/05 08:12:35;;;;;;;3.95;2.65;;;23.50;99.90;;;;;;7392637;19;20174;-87
2022/09/05 08:15:17;;;;;;;5.13;2.40;;;23.40;99.90;;;;;;7396319;19;20609;-83
2022/09/05 08:17:54;;;;;;;8.23;2.45;;;23.30;99.90;;;;;;7395532;19;20142;-86
2022/09/05 08:20:28;;;;;;;2.95;2.38;;;23.30;99.90;;;;;;7395923;19;20515;-86
2022/09/05 08:23:04;;;;;;;2.70;1.98;;;23.30;99.90;;;;;;7398687;19;20146;-83
2022/09/05 08:25:41;;;;;;;3.40;2.20;;;23.40;99.90;;;;;;7403425;19;20138;-84
2022/09/05 08:28:25;;;;;;;3.30;2.10;;;23.40;99.90;;;;;;7394747;19;20146;-85
2022/09/05 08:31:08;;;;;;;5.18;2.63;;;23.40;99.90;;;;;;7393477;19;20202;-82
2022/09/05 08:33:36;;;;;;;2.80;2.20;;;23.40;99.90;;;;;;7395332;19;20488;-86
2022/09/05 08:36:15;;;;;;;6.22;2.45;;;23.40;99.90;;;;;;7395209;19;20141;-87
2022/09/05 08:38:43;;;;;;;3.10;2.70;;;23.40;99.90;;;;;;7392944;19;20749;-86
2022/09/05 08:41:36;;;;;;;3.33;2.30;;;23.50;99.90;;;;;;7389757;19;20130;-86
2022/09/05 08:44:34;;;;;;;3.53;2.35;;;23.50;99.90;;;;;;7392007;19;20547;-85
2022/09/05 08:47:09;;;;;;;3.75;2.50;;;23.50;99.90;;;;;;7391253;19;20143;-83
2022/09/05 08:50:05;;;;;;;3.10;1.77;;;23.50;99.90;;;;;;7393543;19;20229;-86
2022/09/05 08:52:49;;;;;;;2.38;1.92;;;23.60;99.90;;;;;;7391974;19;20190;-83
2022/09/05 08:55:46;;;;;;;3.50;2.00;;;23.70;99.90;;;;;;7392151;19;20146;-82
2022/09/05 08:58:49;;;;;;;4.53;2.55;;;23.70;99.90;;;;;;7397201;19;20134;-83
2022/09/05 09:01:30;;;;;;;4.32;2.33;;;23.80;99.90;;;;;;7399204;19;20689;-88
2022/09/05 09:04:18;;;;;;;4.90;2.95;;;23.80;99.90;;;;;;7400615;19;20470;-85
2022/09/05 09:07:02;;;;;;;4.82;2.60;;;23.90;99.90;;;;;;7399597;19;20650;-84
2022/09/05 09:09:50;;;;;;;6.32;2.67;;;23.90;99.90;;;;;;7398321;19;20150;-86
2022/09/05 09:12:47;;;;;;;4.53;2.38;;;24.00;99.90;;;;;;7397967;19;20198;-85
2022/09/05 09:15:19;;;;;;;2.85;1.80;;;24.10;99.90;;;;;;7400328;19;20615;-85
2022/09/05 09:17:48;;;;;;;2.95;1.90;;;24.10;99.90;;;;;;7396141;19;20138;-83
2022/09/05 09:20:39;;;;;;;2.90;2.05;;;24.20;99.90;;;;;;7401013;19;20141;-83
2022/09/05 09:23:13;;;;;;;2.95;1.88;;;24.10;99.90;;;;;;7399563;19;20151;-86
2022/09/05 09:26:10;;;;;;;2.75;1.92;;;24.20;99.90;;;;;;7399221;19;20139;-87
2022/09/05 09:28:47;;;;;;;3.92;2.20;;;24.20;99.90;;;;;;7397273;19;20165;-84
2022/09/05 09:31:37;;;;;;;4.35;2.22;;;24.20;99.90;;;;;;7399176;19;20156;-86
2022/09/05 09:34:25;;;;;;;2.40;1.73;;;24.30;99.90;;;;;;7398085;19;20141;-81
2022/09/05 09:37:13;;;;;;;2.90;1.58;;;24.50;99.90;;;;;;7397400;19;20145;-82
2022/09/05 09:40:37;;;;;;;3.65;2.13;;;24.60;99.90;;;;;;7395564;19;20135;-84
2022/09/05 09:43:41;;;;;;;2.58;2.20;;;24.60;99.90;;;;;;7395827;19;20147;-80
2022/09/05 09:46:20;;;;;;;2.13;1.80;;;24.70;99.90;;;;;;7392689;19;20233;-83
2022/09/05 09:49:09;;;;;;;3.22;1.75;;;24.70;99.90;;;;;;7396330;19;20145;-85
2022/09/05 09:51:35;;;;;;;4.32;2.10;;;24.80;99.90;;;;;;7397664;19;20143;-84
2022/09/05 09:54:34;;;;;;;2.65;2.10;;;24.70;99.90;;;;;;7397816;19;20146;-84
2022/09/05 09:57:18;;;;;;;4.35;2.20;;;24.80;99.90;;;;;;7396240;19;20146;-84
2022/09/05 10:00:03;;;;;;;4.18;2.80;;;24.90;99.90;;;;;;7396846;19;20146;-84
2022/09/05 10:02:41;;;;;;;3.03;2.30;;;25.00;99.90;;;;;;7399453;19;20560;-84
2022/09/05 10:05:31;;;;;;;6.68;3.42;;;25.00;99.90;;;;;;7397183;19;20167;-84
2022/09/05 10:08:15;;;;;;;2.15;1.83;;;25.10;99.90;;;;;;7399341;19;20580;-82
2022/09/05 10:11:19;;;;;;;3.35;2.30;;;25.20;99.90;;;;;;7397647;19;20130;-84
2022/09/05 10:14:17;;;;;;;3.72;2.10;;;25.40;99.90;;;;;;7399299;19;20790;-81
2022/09/05 10:17:09;;;;;;;3.28;2.03;;;25.40;99.90;;;;;;7395592;19;20138;-83
2022/09/05 10:20:15;;;;;;;2.40;1.77;;;25.50;99.90;;;;;;7399284;19;20452;-84
2022/09/05 10:23:01;;;;;;;4.68;2.08;;;25.60;99.90;;;;;;7398081;19;20131;-83
2022/09/05 10:25:45;;;;;;;4.45;2.30;;;25.70;99.90;;;;;;7396462;19;20138;-84
2022/09/05 10:28:29;;;;;;;4.60;2.20;;;25.70;99.90;;;;;;7395492;19;20158;-83
2022/09/05 10:31:20;;;;;;;2.35;2.10;;;25.80;99.90;;;;;;7397709;19;20138;-84
2022/09/05 10:33:51;;;;;;;3.30;2.60;;;25.70;99.90;;;;;;7395457;19;20401;-82
2022/09/05 10:36:31;;;;;;;2.67;2.00;;;25.90;99.90;;;;;;7395765;19;20521;-81
2022/09/05 10:39:19;;;;;;;3.83;2.30;;;25.90;99.90;;;;;;7397794;19;20143;-82
2022/09/05 10:41:56;;;;;;;3.58;2.33;;;26.10;99.90;;;;;;7394725;19;20377;-79
2022/09/05 10:44:47;;;;;;;3.08;2.45;;;26.10;99.90;;;;;;7392028;19;20383;-78
2022/09/05 10:47:25;;;;;;;2.13;1.65;;;26.10;99.90;;;;;;7397139;19;20131;-78
2022/09/05 10:50:17;;;;;;;4.75;1.90;;;26.20;99.90;;;;;;7395558;19;20130;-78
2022/09/05 10:52:49;;;;;;;1.58;1.33;;;26.40;99.90;;;;;;7392505;19;20495;-78
2022/09/05 10:55:35;;;;;;;10.25;2.85;;;26.50;99.90;;;;;;7396181;19;20131;-78
2022/09/05 10:58:10;;;;;;;3.42;2.00;;;26.50;99.90;;;;;;7394006;19;20173;-77
2022/09/05 11:00:55;;;;;;;2.83;2.10;;;26.40;99.90;;;;;;7394388;19;20142;-81
2022/09/05 11:03:28;;;;;;;2.15;1.75;;;26.40;99.90;;;;;;7393926;19;20147;-79
2022/09/05 11:06:04;;;;;;;2.88;1.77;;;26.40;99.90;;;;;;7393934;19;20178;-79
2022/09/05 11:08:54;;;;;;;2.30;2.10;;;26.30;99.90;;;;;;7393835;19;20126;-78
2022/09/05 11:11:32;;;;;;;3.72;1.75;;;26.40;99.90;;;;;;7393191;19;20178;-78
2022/09/05 11:14:02;;;;;;;2.20;1.90;;;26.50;99.90;;;;;;7394125;19;20146;-80
2022/09/05 11:16:39;;;;;;;3.60;2.30;;;26.60;99.90;;;;;;7393022;19;20135;-79
2022/09/05 11:19:12;;;;;;;1.85;1.67;;;26.60;99.90;;;;;;7391893;19;20164;-80
2022/09/05 11:21:50;;;;;;;1.73;1.50;;;26.70;99.90;;;;;;7394996;19;20147;-81
2022/09/05 11:24:39;;;;;;;1.60;1.40;;;26.70;99.90;;;;;;7398323;19;20152;-81
2022/09/05 11:27:11;;;;;;;1.88;1.33;;;26.70;99.90;;;;;;7394980;19;20149;-81
2022/09/05 11:29:47;;;;;;;1.85;1.42;;;26.80;99.90;;;;;;7395948;19;20179;-80
2022/09/05 11:32:30;;;;;;;1.98;1.73;;;27.00;99.90;;;;;;7397156;19;20144;-80
2022/09/05 11:35:15;;;;;;;2.65;1.70;;;27.20;99.90;;;;;;7397460;19;20198;-81
2022/09/05 11:38:05;;;;;;;1.77;1.50;;;27.30;99.90;;;;;;7393551;19;20150;-80
2022/09/05 11:40:31;;;;;;;2.42;1.58;;;27.20;99.90;;;;;;7398547;19;20134;-81
2022/09/05 11:43:02;;;;;;;1.98;1.60;;;27.30;99.90;;;;;;7396733;19;20130;-82
2022/09/05 11:46:16;;;;;;;2.03;1.55;;;27.30;99.90;;;;;;7394711;19;20677;-79
2022/09/05 11:49:06;;;;;;;2.97;1.70;;;27.00;99.90;;;;;;7390424;19;20135;-78
2022/09/05 11:52:06;;;;;;;1.77;1.58;;;26.80;99.90;;;;;;7394755;19;20139;-79
2022/09/05 11:55:07;;;;;;;2.63;1.70;;;27.00;99.90;;;;;;7393097;19;20134;-78
2022/09/05 11:57:51;;;;;;;2.22;1.40;;;27.30;99.90;;;;;;7392288;19;20143;-79
2022/09/05 12:00:36;;;;;;;3.10;1.50;;;27.30;99.20;;;;;;7391953;19;20469;-79
2022/09/05 12:03:16;;;;;;;2.47;1.42;;;27.30;99.90;;;;;;7393644;19;20152;-78
2022/09/05 12:06:00;;;;;;;2.75;1.58;;;27.40;99.70;;;;;;7391940;19;20636;-77
2022/09/05 12:08:40;;;;;;;1.42;1.30;;;27.70;98.30;;;;;;7393073;19;20157;-78
2022/09/05 12:11:31;;;;;;;1.60;1.48;;;27.80;97.60;;;;;;7390575;19;20183;-78
2022/09/05 12:14:22;;;;;;;1.40;1.30;;;27.70;99.60;;;;;;7393590;19;20161;-78
2022/09/05 12:16:54;;;;;;;1.65;1.40;;;27.80;97.50;;;;;;7391554;19;20149;-80
2022/09/05 12:19:28;;;;;;;3.13;1.73;;;27.80;97.60;;;;;;7389559;19;20495;-78
2022/09/05 12:22:19;;;;;;;2.08;1.60;;;27.80;97.50;;;;;;7391653;19;20146;-77
2022/09/05 12:25:17;;;;;;;1.48;1.20;;;27.80;98.90;;;;;;7393158;19;20583;-79
2022/09/05 12:27:47;;;;;;;1.75;1.50;;;27.70;98.70;;;;;;7392210;19;20203;-78
2022/09/05 12:30:22;;;;;;;2.15;1.50;;;27.60;99.60;;;;;;7387999;19;20134;-78
2022/09/05 12:33:15;;;;;;;1.30;1.20;;;27.70;98.90;;;;;;7391292;19;20145;-79
2022/09/05 12:35:52;;;;;;;1.30;1.13;;;27.70;99.10;;;;;;7388084;19;20154;-79
2022/09/05 12:38:27;;;;;;;2.33;1.40;;;27.70;98.60;;;;;;7390310;19;20142;-80
2022/09/05 12:41:12;;;;;;;1.95;1.30;;;27.80;99.30;;;;;;7386943;19;20134;-80
2022/09/05 12:44:02;;;;;;;2.67;2.10;;;27.80;98.40;;;;;;7389867;19;20531;-77
2022/09/05 12:46:53;;;;;;;1.70;1.60;;;28.10;96.30;;;;;;7391627;19;20498;-77
2022/09/05 12:49:34;;;;;;;1.60;1.50;;;28.20;95.70;;;;;;7390731;19;20130;-77
2022/09/05 12:52:23;;;;;;;2.33;1.33;;;28.10;95.20;;;;;;7390119;19;20266;-77
2022/09/05 12:54:53;;;;;;;1.63;1.27;;;28.00;95.90;;;;;;7387538;19;20158;-76
2022/09/05 12:57:32;;;;;;;3.00;1.75;;;27.70;97.60;;;;;;7389304;19;20141;-77
2022/09/05 13:00:17;;;;;;;2.72;1.88;;;27.70;97.00;;;;;;7388526;19;20126;-78
2022/09/05 13:02:49;;;;;;;2.00;1.80;;;27.90;96.70;;;;;;7388989;19;20139;-77
2022/09/05 13:05:18;;;;;;;1.65;1.55;;;27.90;98.00;;;;;;7389621;19;20555;-77
2022/09/05 13:07:51;;;;;;;2.03;1.50;;;27.70;99.70;;;;;;7390371;19;20622;-77
2022/09/05 13:10:36;;;;;;;1.50;1.25;;;27.70;99.40;;;;;;7391312;19;20145;-77
2022/09/05 13:13:22;;;;;;;3.00;1.27;;;27.60;98.90;;;;;;7387228;19;20202;-77
2022/09/05 13:15:52;;;;;;;2.05;1.50;;;27.60;98.90;;;;;;7388711;19;20222;-78
2022/09/05 13:18:26;;;;;;;3.25;1.48;;;27.60;98.70;;;;;;7389432;19;20231;-77
2022/09/05 13:20:54;;;;;;;1.42;1.33;;;27.70;97.60;;;;;;7390339;19;20138;-77
2022/09/05 13:23:29;;;;;;;2.83;1.80;;;27.70;98.00;;;;;;7389549;19;20602;-78
2022/09/05 13:26:03;;;;;;;2.33;1.42;;;27.70;98.90;;;;;;7389233;19;20134;-78
2022/09/05 13:28:51;;;;;;;3.22;1.30;;;27.70;97.70;;;;;;7389245;19;20134;-78
2022/09/05 13:31:39;;;;;;;1.58;1.48;;;27.80;96.30;;;;;;7389664;19;20145;-80
2022/09/05 13:34:27;;;;;;;3.03;1.80;;;28.10;95.00;;;;;;7390382;19;20135;-78
2022/09/05 13:36:57;;;;;;;6.80;3.70;;;28.10;95.90;;;;;;7388527;19;20135;-77
2022/09/05 13:39:27;;;;;;;4.28;1.80;;;28.20;94.60;;;;;;7388628;19;20131;-78
2022/09/05 13:42:02;;;;;;;1.52;1.10;;;28.10;95.90;;;;;;7392604;19;20159;-78
2022/09/05 13:44:35;;;;;;;5.93;2.00;;;28.10;95.90;;;;;;7392125;19;20641;-80
2022/09/05 13:47:57;;;;;;;2.92;2.20;;;28.00;95.90;;;;;;7398065;19;20210;-77
2022/09/05 13:50:35;;;;;;;3.95;1.08;;;28.00;95.50;;;;;;7394180;19;20142;-78
2022/09/05 13:53:19;;;;;;;2.58;1.60;;;28.10;95.10;;;;;;7394466;19;20261;-80
2022/09/05 13:55:52;;;;;;;7.68;1.45;;;28.00;97.50;;;;;;7395266;19;20161;-76
2022/09/05 13:58:41;;;;;;;4.40;2.30;;;27.80;99.00;;;;;;7394213;19;20138;-74
2022/09/05 14:01:35;;;;;;;3.83;2.30;;;27.60;98.30;;;;;;7396406;19;20153;-79
2022/09/05 14:04:33;;;;;;;3.25;2.70;;;27.30;99.70;;;;;;7396865;19;20129;-75
2022/09/05 14:07:11;;;;;;;2.38;2.17;;;27.10;98.40;;;;;;7396371;19;20138;-76
2022/09/05 14:10:07;;;;;;;1.50;1.40;;;27.30;96.50;;;;;;7395326;19;20158;-76
2022/09/05 14:12:40;;;;;;;2.55;1.55;;;27.50;95.60;;;;;;7393247;19;20609;-75